Time;durP1;ratioP1;P1;durP2;ratioP2;P2;SDS_P1;SDS_P2;PMS_P1;PMS_P2;Temp;Humidity;BMP_temperature;BMP_pressure;BME280_temperature;BME280_humidity;BME280_pressure;Samples;Min_cycle;Max_cycle;Signal;HPM_P1;HPM_P2
2023/05/02 00:00:13;;;;;;;12.88;6.03;;;;;;;;;;5068273;28;20809;-83
2023/05/02 00:02:42;;;;;;;14.50;6.80;;;;;;;;;;5064333;28;20756;-83
2023/05/02 00:05:10;;;;;;;13.80;7.22;;;;;;;;;;5065693;28;20419;-84
2023/05/02 00:07:38;;;;;;;14.77;7.60;;;;;;;;;;5067557;28;20418;-82
2023/05/02 00:10:07;;;;;;;15.73;8.15;;;;;;;;;;5064996;28;20446;-81
2023/05/02 00:12:39;;;;;;;18.05;8.65;;;;;;;;;;5067214;28;20428;-83
2023/05/02 00:15:08;;;;;;;16.10;8.83;;;;;;;;;;5067215;28;20442;-83
2023/05/02 00:17:36;;;;;;;18.15;9.07;;;;;;;;;;5068291;28;20418;-81
2023/05/02 00:20:08;;;;;;;18.53;9.50;;;;;;;;;;5059000;28;20884;-85
2023/05/02 00:22:36;;;;;;;21.73;10.63;;;;;;;;;;5057320;28;20429;-82
2023/05/02 00:25:04;;;;;;;20.63;10.70;;;;;;;;;;5062804;28;20419;-84
2023/05/02 00:27:32;;;;;;;20.53;10.97;;;;;;;;;;5066801;28;20427;-82
2023/05/02 00:30:05;;;;;;;20.95;11.30;;;;;;;;;;5063949;28;20758;-84
2023/05/02 00:32:33;;;;;;;20.70;11.05;;;;;;;;;;5052463;28;20766;-82
2023/05/02 00:35:01;;;;;;;23.15;11.95;;;;;;;;;;5056164;28;20429;-85
2023/05/02 00:37:30;;;;;;;23.92;12.85;;;;;;;;;;5060943;28;20931;-84
2023/05/02 00:39:58;;;;;;;23.08;12.23;;;;;;;;;;5052000;28;20421;-83
2023/05/02 00:42:34;;;;;;;23.67;12.68;;;;;;;;;;5061326;28;20436;-85
2023/05/02 00:45:04;;;;;;;23.63;12.93;;;;;;;;;;5068070;28;20427;-84
2023/05/02 00:47:32;;;;;;;25.30;13.77;;;;;;;;;;5066953;28;20910;-85
2023/05/02 00:50:00;;;;;;;27.10;14.30;;;;;;;;;;5058232;28;20470;-84
2023/05/02 00:52:29;;;;;;;25.67;13.80;;;;;;;;;;5059658;28;20865;-83
2023/05/02 00:54:57;;;;;;;28.48;14.73;;;;;;;;;;5060523;28;20413;-83
2023/05/02 00:57:25;;;;;;;27.67;14.63;;;;;;;;;;5073694;28;20429;-84
2023/05/02 00:59:58;;;;;;;29.27;15.63;;;;;;;;;;5063240;28;20792;-84
2023/05/02 01:02:33;;;;;;;29.88;16.27;;;;;;;;;;5064119;28;20407;-83
2023/05/02 01:05:05;;;;;;;28.33;16.37;;;;;;;;;;5052988;28;20409;-85
2023/05/02 01:07:46;;;;;;;32.50;16.98;;;;;;;;;;5065744;28;20428;-81
2023/05/02 01:10:26;;;;;;;29.35;16.30;;;;;;;;;;5066653;28;21375;-82
2023/05/02 01:13:03;;;;;;;32.45;16.95;;;;;;;;;;5059291;28;20425;-83
2023/05/02 01:15:32;;;;;;;30.40;15.97;;;;;;;;;;5060697;28;20429;-82
2023/05/02 01:18:01;;;;;;;30.48;17.33;;;;;;;;;;5059567;28;20924;-84
2023/05/02 01:20:37;;;;;;;33.05;17.08;;;;;;;;;;5056433;28;20423;-83
2023/05/02 01:23:09;;;;;;;31.90;17.58;;;;;;;;;;5059910;28;20419;-84
2023/05/02 01:25:47;;;;;;;30.15;16.70;;;;;;;;;;5060156;28;20435;-83
2023/05/02 01:28:28;;;;;;;31.83;17.70;;;;;;;;;;5061883;28;20446;-84
2023/05/02 01:30:57;;;;;;;33.33;18.67;;;;;;;;;;5068255;28;20412;-83
2023/05/02 01:33:30;;;;;;;36.22;18.88;;;;;;;;;;5067052;28;20431;-84
2023/05/02 01:35:59;;;;;;;34.85;19.08;;;;;;;;;;5065976;28;20423;-85
2023/05/02 01:38:27;;;;;;;33.70;19.00;;;;;;;;;;5057196;28;20742;-84
2023/05/02 01:40:57;;;;;;;33.07;18.73;;;;;;;;;;5062010;28;20524;-83
2023/05/02 01:43:25;;;;;;;33.92;18.77;;;;;;;;;;5063983;28;20432;-83
2023/05/02 01:46:00;;;;;;;34.90;20.05;;;;;;;;;;5066954;28;20432;-82
2023/05/02 01:48:28;;;;;;;34.75;19.10;;;;;;;;;;5071321;28;20430;-84
2023/05/02 01:50:58;;;;;;;37.17;19.10;;;;;;;;;;5065675;28;20423;-84
2023/05/02 01:53:28;;;;;;;39.38;19.40;;;;;;;;;;5068829;28;20431;-86
2023/05/02 01:56:01;;;;;;;34.53;19.02;;;;;;;;;;5061754;28;20455;-84
2023/05/02 01:58:35;;;;;;;37.70;19.33;;;;;;;;;;5059168;28;20425;-84
2023/05/02 02:01:10;;;;;;;38.25;19.95;;;;;;;;;;5062512;28;20429;-84
2023/05/02 02:03:38;;;;;;;35.33;19.08;;;;;;;;;;5057124;28;20426;-84
2023/05/02 02:06:11;;;;;;;40.15;19.50;;;;;;;;;;5062789;28;20450;-85
2023/05/02 02:08:44;;;;;;;34.72;18.70;;;;;;;;;;5057580;28;20417;-82
2023/05/02 02:11:17;;;;;;;36.28;18.95;;;;;;;;;;5064989;28;20432;-81
2023/05/02 02:13:48;;;;;;;33.38;18.25;;;;;;;;;;5063395;28;20428;-83
2023/05/02 02:16:23;;;;;;;34.10;17.65;;;;;;;;;;5057452;28;20916;-84
2023/05/02 02:18:52;;;;;;;31.02;16.50;;;;;;;;;;5051978;28;20425;-84
2023/05/02 02:21:20;;;;;;;29.77;15.32;;;;;;;;;;5062964;28;20430;-83
2023/05/02 02:23:49;;;;;;;26.20;13.43;;;;;;;;;;5058844;28;20422;-83
2023/05/02 02:26:22;;;;;;;25.55;13.60;;;;;;;;;;5057279;28;20433;-83
2023/05/02 02:28:50;;;;;;;25.35;12.15;;;;;;;;;;5064935;28;20448;-84
2023/05/02 02:31:20;;;;;;;23.70;11.35;;;;;;;;;;5059522;28;20425;-83
2023/05/02 02:33:48;;;;;;;22.90;10.77;;;;;;;;;;5060134;28;21161;-83
2023/05/02 02:36:28;;;;;;;21.83;10.90;;;;;;;;;;5062315;28;21246;-83
2023/05/02 02:39:02;;;;;;;21.73;9.93;;;;;;;;;;5050515;28;20790;-83
2023/05/02 02:41:33;;;;;;;20.33;9.85;;;;;;;;;;5052357;28;20421;-83
2023/05/02 02:44:04;;;;;;;22.08;10.00;;;;;;;;;;5053036;28;20424;-86
2023/05/02 02:46:44;;;;;;;19.98;9.60;;;;;;;;;;5060673;28;20426;-85
2023/05/02 02:49:22;;;;;;;19.17;9.40;;;;;;;;;;5065709;28;20427;-87
2023/05/02 02:51:53;;;;;;;18.67;9.60;;;;;;;;;;5064545;28;20444;-86
2023/05/02 02:54:24;;;;;;;18.88;9.35;;;;;;;;;;5060364;28;20431;-85
2023/05/02 02:56:58;;;;;;;19.92;9.73;;;;;;;;;;5060876;28;20423;-84
2023/05/02 02:59:27;;;;;;;19.83;9.77;;;;;;;;;;5065485;28;20794;-85
2023/05/02 03:02:03;;;;;;;20.73;9.57;;;;;;;;;;5066630;28;20419;-86
2023/05/02 03:04:32;;;;;;;18.73;9.40;;;;;;;;;;5082057;28;20663;-85
2023/05/02 03:07:01;;;;;;;18.55;8.95;;;;;;;;;;5063658;28;20428;-86
2023/05/02 03:09:39;;;;;;;18.05;8.63;;;;;;;;;;5057982;28;21091;-84
2023/05/02 03:12:08;;;;;;;16.92;8.30;;;;;;;;;;5067688;28;20430;-86
2023/05/02 03:14:38;;;;;;;14.82;7.82;;;;;;;;;;5063332;28;20429;-86
2023/05/02 03:17:08;;;;;;;15.90;7.75;;;;;;;;;;5062555;28;20417;-85
2023/05/02 03:19:36;;;;;;;15.68;7.30;;;;;;;;;;5064571;28;20429;-86
2023/05/02 03:22:05;;;;;;;12.85;6.80;;;;;;;;;;5065824;28;20431;-86
2023/05/02 03:24:35;;;;;;;12.18;6.32;;;;;;;;;;5066512;28;20430;-86
2023/05/02 03:27:04;;;;;;;10.73;5.78;;;;;;;;;;5052920;28;20857;-85
2023/05/02 03:29:41;;;;;;;12.77;6.20;;;;;;;;;;5054501;28;20916;-86
2023/05/02 03:32:15;;;;;;;9.15;4.50;;;;;;;;;;5061242;28;20787;-86
2023/05/02 03:34:43;;;;;;;7.68;3.85;;;;;;;;;;5061074;28;20435;-84
2023/05/02 03:37:16;;;;;;;8.20;3.35;;;;;;;;;;5061479;28;20451;-83
2023/05/02 03:39:44;;;;;;;7.53;3.17;;;;;;;;;;5058235;28;20440;-83
2023/05/02 03:42:12;;;;;;;9.95;3.55;;;;;;;;;;5058862;28;20605;-85
2023/05/02 03:44:45;;;;;;;10.60;3.60;;;;;;;;;;5065471;28;20423;-83
2023/05/02 03:47:13;;;;;;;10.35;3.70;;;;;;;;;;5065941;28;20418;-83
2023/05/02 03:49:43;;;;;;;10.68;3.63;;;;;;;;;;5069266;28;20436;-83
2023/05/02 03:52:11;;;;;;;12.00;3.97;;;;;;;;;;5064036;28;20409;-83
2023/05/02 03:54:45;;;;;;;14.63;4.00;;;;;;;;;;5079703;28;20419;-82
2023/05/02 03:57:18;;;;;;;12.73;4.47;;;;;;;;;;5059911;28;20417;-84
2023/05/02 03:59:47;;;;;;;13.50;4.00;;;;;;;;;;5069598;28;20761;-84
2023/05/02 04:02:26;;;;;;;14.20;4.25;;;;;;;;;;5086417;28;20417;-82
2023/05/02 04:04:56;;;;;;;16.33;3.90;;;;;;;;;;5065665;28;20775;-83
2023/05/02 04:07:28;;;;;;;17.15;3.97;;;;;;;;;;5052513;28;20802;-84
2023/05/02 04:10:05;;;;;;;16.27;4.00;;;;;;;;;;5069829;28;20416;-84
2023/05/02 04:12:37;;;;;;;17.20;3.75;;;;;;;;;;5061328;28;20427;-84
2023/05/02 04:15:06;;;;;;;18.87;4.10;;;;;;;;;;5063052;28;20901;-85
2023/05/02 04:17:34;;;;;;;13.90;3.72;;;;;;;;;;5055223;28;20437;-85
2023/05/02 04:20:12;;;;;;;17.02;3.85;;;;;;;;;;5071681;28;20422;-84
2023/05/02 04:22:49;;;;;;;18.77;4.20;;;;;;;;;;5064209;28;20424;-86
2023/05/02 04:25:17;;;;;;;17.42;4.35;;;;;;;;;;5063345;28;20419;-84
2023/05/02 04:27:46;;;;;;;17.43;4.17;;;;;;;;;;5052563;28;21242;-86
2023/05/02 04:30:22;;;;;;;18.35;4.07;;;;;;;;;;5066939;28;20431;-85
2023/05/02 04:33:08;;;;;;;14.68;3.83;;;;;;;;;;5061590;28;20421;-86
2023/05/02 04:35:42;;;;;;;17.00;3.58;;;;;;;;;;5055081;28;20433;-86
2023/05/02 04:38:12;;;;;;;17.23;3.83;;;;;;;;;;5057634;28;20923;-84
2023/05/02 04:40:42;;;;;;;14.45;3.17;;;;;;;;;;5063205;28;20425;-86
2023/05/02 04:43:10;;;;;;;13.60;3.40;;;;;;;;;;5062696;28;20417;-85
2023/05/02 04:45:47;;;;;;;14.63;3.40;;;;;;;;;;5060232;28;20445;-84
2023/05/02 04:48:22;;;;;;;14.95;3.30;;;;;;;;;;5075333;28;20421;-85
2023/05/02 04:50:52;;;;;;;12.15;3.20;;;;;;;;;;5069703;28;20426;-85
2023/05/02 04:53:25;;;;;;;16.13;3.50;;;;;;;;;;5074124;28;20758;-84
2023/05/02 04:55:58;;;;;;;17.05;3.70;;;;;;;;;;5064135;28;20400;-87
2023/05/02 04:58:35;;;;;;;11.40;3.17;;;;;;;;;;5051400;28;20425;-85
2023/05/02 05:01:06;;;;;;;19.03;3.50;;;;;;;;;;5067992;28;20413;-84
2023/05/02 05:03:34;;;;;;;15.93;3.53;;;;;;;;;;5078033;28;20440;-85
2023/05/02 05:06:03;;;;;;;17.65;3.38;;;;;;;;;;5063842;28;20426;-86
2023/05/02 05:08:32;;;;;;;12.15;3.00;;;;;;;;;;5059962;28;20429;-86
2023/05/02 05:11:00;;;;;;;18.17;3.75;;;;;;;;;;5062550;28;20435;-86
2023/05/02 05:13:33;;;;;;;12.57;3.63;;;;;;;;;;5065404;28;20442;-86
2023/05/02 05:16:02;;;;;;;15.27;3.70;;;;;;;;;;5067544;28;20415;-88
2023/05/02 05:18:39;;;;;;;13.60;3.67;;;;;;;;;;5066755;28;20416;-87
2023/05/02 05:21:16;;;;;;;16.45;3.25;;;;;;;;;;5054694;28;20427;-89
2023/05/02 05:23:45;;;;;;;13.90;3.33;;;;;;;;;;5058201;28;20785;-85
2023/05/02 05:26:24;;;;;;;11.02;3.00;;;;;;;;;;5076583;28;20419;-86
2023/05/02 05:28:52;;;;;;;11.00;2.85;;;;;;;;;;5059734;28;20435;-85
2023/05/02 05:31:23;;;;;;;12.35;2.92;;;;;;;;;;5059003;28;20427;-84
2023/05/02 05:33:54;;;;;;;8.80;2.53;;;;;;;;;;5065850;28;20415;-88
2023/05/02 05:36:25;;;;;;;11.85;2.47;;;;;;;;;;5065683;28;20887;-85
2023/05/02 05:38:53;;;;;;;11.40;2.83;;;;;;;;;;5059029;28;20451;-84
2023/05/02 05:41:25;;;;;;;11.93;2.60;;;;;;;;;;5058849;28;20541;-86
2023/05/02 05:44:00;;;;;;;12.93;2.65;;;;;;;;;;5074735;28;20423;-85
2023/05/02 05:46:29;;;;;;;13.18;2.58;;;;;;;;;;5057429;28;20421;-88
2023/05/02 05:49:03;;;;;;;13.75;2.55;;;;;;;;;;5066557;28;20784;-88
2023/05/02 05:51:38;;;;;;;10.65;2.20;;;;;;;;;;5061039;28;20411;-86
2023/05/02 05:54:06;;;;;;;10.73;2.60;;;;;;;;;;5062384;28;21056;-85
2023/05/02 05:56:34;;;;;;;12.82;2.53;;;;;;;;;;5055793;28;20779;-86
2023/05/02 05:59:13;;;;;;;9.48;2.38;;;;;;;;;;5068303;28;20478;-88
2023/05/02 06:01:41;;;;;;;14.35;2.75;;;;;;;;;;5061425;28;20432;-85
2023/05/02 06:04:16;;;;;;;12.32;2.70;;;;;;;;;;5067711;28;20419;-86
2023/05/02 06:06:50;;;;;;;12.23;2.65;;;;;;;;;;5068357;28;20435;-84
2023/05/02 06:09:18;;;;;;;10.85;2.50;;;;;;;;;;5061481;28;20425;-85
2023/05/02 06:11:45;;;;;;;12.40;2.70;;;;;;;;;;5061193;28;20541;-85
2023/05/02 06:14:13;;;;;;;12.13;2.80;;;;;;;;;;5067141;28;20419;-83
2023/05/02 06:16:42;;;;;;;12.60;3.00;;;;;;;;;;5057370;28;20408;-85
2023/05/02 06:19:11;;;;;;;12.93;2.80;;;;;;;;;;5057777;28;20765;-85
2023/05/02 06:21:44;;;;;;;10.43;3.00;;;;;;;;;;5055500;28;20422;-86
2023/05/02 06:24:13;;;;;;;12.73;2.75;;;;;;;;;;5062390;28;20459;-84
2023/05/02 06:26:41;;;;;;;11.07;3.00;;;;;;;;;;5056526;28;20752;-87
2023/05/02 06:29:14;;;;;;;10.00;2.45;;;;;;;;;;5076396;28;20431;-83
2023/05/02 06:31:42;;;;;;;10.10;2.73;;;;;;;;;;5057946;28;20437;-83
2023/05/02 06:34:14;;;;;;;11.63;2.53;;;;;;;;;;5061860;28;20429;-84
2023/05/02 06:36:42;;;;;;;12.88;2.85;;;;;;;;;;5056543;28;20433;-84
2023/05/02 06:39:10;;;;;;;11.80;2.83;;;;;;;;;;5057816;28;20978;-83
2023/05/02 06:41:39;;;;;;;11.63;2.50;;;;;;;;;;5058203;28;20433;-84
2023/05/02 06:44:16;;;;;;;8.52;2.30;;;;;;;;;;5060130;28;20831;-82
2023/05/02 06:46:49;;;;;;;10.32;2.55;;;;;;;;;;5054049;28;20752;-83
2023/05/02 06:49:22;;;;;;;9.65;2.60;;;;;;;;;;5071139;28;21007;-83
2023/05/02 06:51:55;;;;;;;6.90;2.33;;;;;;;;;;5053806;28;20437;-84
2023/05/02 06:54:22;;;;;;;9.50;2.40;;;;;;;;;;5057166;28;20928;-82
2023/05/02 06:56:57;;;;;;;11.18;2.55;;;;;;;;;;5057574;28;20774;-82
2023/05/02 06:59:29;;;;;;;10.30;2.28;;;;;;;;;;5064143;28;20428;-84
2023/05/02 07:02:02;;;;;;;9.60;2.45;;;;;;;;;;5056579;28;20431;-84
2023/05/02 07:04:30;;;;;;;10.93;2.50;;;;;;;;;;5054159;28;20785;-84
2023/05/02 07:07:03;;;;;;;7.28;2.22;;;;;;;;;;5058581;28;20439;-83
2023/05/02 07:09:36;;;;;;;9.75;2.20;;;;;;;;;;5056037;28;20910;-84
2023/05/02 07:12:05;;;;;;;7.25;2.03;;;;;;;;;;5059754;28;20456;-84
2023/05/02 07:14:38;;;;;;;10.07;2.50;;;;;;;;;;5058844;28;20437;-85
2023/05/02 07:17:11;;;;;;;9.60;2.20;;;;;;;;;;5059453;28;20421;-83
2023/05/02 07:19:38;;;;;;;8.53;2.43;;;;;;;;;;5049503;28;20432;-84
2023/05/02 07:22:11;;;;;;;10.85;2.60;;;;;;;;;;5047315;28;20437;-83
2023/05/02 07:24:45;;;;;;;11.55;2.40;;;;;;;;;;5045617;28;20442;-83
2023/05/02 07:27:16;;;;;;;11.05;2.60;;;;;;;;;;5040591;28;20442;-86
2023/05/02 07:29:44;;;;;;;8.30;2.35;;;;;;;;;;5050898;28;20442;-84
2023/05/02 07:32:17;;;;;;;11.50;2.25;;;;;;;;;;5046974;28;20427;-87
2023/05/02 07:34:44;;;;;;;7.93;2.15;;;;;;;;;;5049044;28;20927;-82
2023/05/02 07:37:17;;;;;;;7.95;2.22;;;;;;;;;;5043813;28;20419;-84
2023/05/02 07:39:50;;;;;;;6.77;1.97;;;;;;;;;;5048499;28;20423;-84
2023/05/02 07:42:19;;;;;;;7.60;2.08;;;;;;;;;;5053212;28;20426;-84
2023/05/02 07:44:47;;;;;;;11.00;2.53;;;;;;;;;;5046186;28;20426;-85
2023/05/02 07:47:20;;;;;;;9.40;2.05;;;;;;;;;;5050093;28;20428;-83
2023/05/02 07:49:53;;;;;;;7.20;1.88;;;;;;;;;;5045180;28;20435;-83
2023/05/02 07:52:26;;;;;;;6.60;2.08;;;;;;;;;;5048328;28;20427;-83
2023/05/02 07:54:59;;;;;;;7.93;2.20;;;;;;;;;;5047693;28;21017;-84
2023/05/02 07:57:33;;;;;;;6.47;2.20;;;;;;;;;;5047485;28;20423;-86
2023/05/02 08:00:09;;;;;;;6.82;2.17;;;;;;;;;;5038603;28;20439;-83
2023/05/02 08:02:42;;;;;;;7.47;2.05;;;;;;;;;;5041950;28;20416;-85
2023/05/02 08:05:15;;;;;;;8.27;1.83;;;;;;;;;;5039971;28;20443;-84
2023/05/02 08:07:42;;;;;;;6.60;1.87;;;;;;;;;;5044776;28;20497;-84
2023/05/02 08:10:10;;;;;;;6.23;1.80;;;;;;;;;;5043597;28;20423;-85
2023/05/02 08:12:40;;;;;;;5.30;1.87;;;;;;;;;;5048254;28;20520;-85
2023/05/02 08:15:09;;;;;;;6.93;2.00;;;;;;;;;;5051464;28;20431;-84
2023/05/02 08:17:36;;;;;;;8.13;2.08;;;;;;;;;;5046124;28;20423;-83
2023/05/02 08:20:09;;;;;;;6.35;1.83;;;;;;;;;;5041430;28;20747;-86
2023/05/02 08:22:37;;;;;;;6.53;1.85;;;;;;;;;;5039080;28;20446;-83
2023/05/02 08:25:06;;;;;;;6.60;1.90;;;;;;;;;;5046192;28;20481;-84
2023/05/02 08:27:40;;;;;;;6.40;1.73;;;;;;;;;;5045390;28;20498;-83
2023/05/02 08:30:11;;;;;;;7.93;1.70;;;;;;;;;;5038835;28;21346;-83
2023/05/02 08:32:39;;;;;;;6.38;2.00;;;;;;;;;;5044583;28;20821;-84
2023/05/02 08:35:11;;;;;;;9.43;2.00;;;;;;;;;;5050424;28;20427;-82
2023/05/02 08:37:39;;;;;;;8.40;1.90;;;;;;;;;;5044631;28;21459;-83
2023/05/02 08:40:14;;;;;;;7.85;2.05;;;;;;;;;;5047476;28;20435;-87
2023/05/02 08:42:43;;;;;;;7.35;2.08;;;;;;;;;;5042375;28;20431;-82
2023/05/02 08:45:12;;;;;;;6.78;1.80;;;;;;;;;;5037590;28;20897;-84
2023/05/02 08:47:46;;;;;;;11.18;2.28;;;;;;;;;;5042126;28;20420;-83
2023/05/02 08:50:15;;;;;;;6.40;1.87;;;;;;;;;;5050393;28;20443;-86
2023/05/02 08:52:49;;;;;;;7.10;2.13;;;;;;;;;;5045065;28;20424;-86
2023/05/02 08:55:26;;;;;;;8.45;1.80;;;;;;;;;;5049682;28;20438;-83
2023/05/02 08:57:57;;;;;;;8.07;1.90;;;;;;;;;;5044178;28;20444;-82
2023/05/02 09:00:30;;;;;;;6.90;1.70;;;;;;;;;;5041666;28;20446;-84
2023/05/02 09:03:06;;;;;;;7.13;2.00;;;;;;;;;;5049228;28;20431;-85
2023/05/02 09:05:39;;;;;;;7.45;1.80;;;;;;;;;;5040150;28;20432;-86
2023/05/02 09:08:12;;;;;;;6.70;1.75;;;;;;;;;;5043813;28;20428;-84
2023/05/02 09:10:40;;;;;;;6.53;1.83;;;;;;;;;;5045051;28;20427;-86
2023/05/02 09:13:30;;;;;;;8.30;2.00;;;;;;;;;;5042034;28;20443;-85
2023/05/02 09:15:59;;;;;;;8.48;1.77;;;;;;;;;;5046364;28;20423;-86
2023/05/02 09:18:33;;;;;;;5.88;1.80;;;;;;;;;;5045190;28;20418;-86
2023/05/02 09:21:07;;;;;;;7.63;1.90;;;;;;;;;;5047361;28;20431;-86
2023/05/02 09:23:41;;;;;;;9.05;1.95;;;;;;;;;;5047826;28;21128;-85
2023/05/02 09:26:16;;;;;;;7.65;1.65;;;;;;;;;;5044363;28;20425;-86
2023/05/02 09:28:46;;;;;;;5.63;1.58;;;;;;;;;;5047808;28;20541;-84
2023/05/02 09:31:15;;;;;;;8.30;1.98;;;;;;;;;;5043320;28;20963;-84
2023/05/02 09:33:43;;;;;;;10.82;1.73;;;;;;;;;;5047113;28;20415;-84
2023/05/02 09:36:16;;;;;;;7.28;1.70;;;;;;;;;;5042215;28;20430;-87
2023/05/02 09:38:47;;;;;;;7.10;1.77;;;;;;;;;;5047703;28;20435;-82
2023/05/02 09:41:16;;;;;;;6.90;1.75;;;;;;;;;;5049482;28;20941;-86
2023/05/02 09:43:54;;;;;;;6.07;1.75;;;;;;;;;;5045272;28;21175;-87
2023/05/02 09:46:22;;;;;;;7.65;1.60;;;;;;;;;;5041987;28;20424;-86
2023/05/02 09:48:56;;;;;;;7.43;1.85;;;;;;;;;;5048721;28;20443;-84
2023/05/02 09:51:24;;;;;;;6.97;1.70;;;;;;;;;;5042271;28;20420;-83
2023/05/02 09:53:57;;;;;;;5.13;1.60;;;;;;;;;;5041653;28;21119;-83
2023/05/02 09:56:25;;;;;;;6.25;1.50;;;;;;;;;;5045310;28;20426;-88
2023/05/02 09:59:11;;;;;;;9.18;1.88;;;;;;;;;;5042794;28;20434;-84
2023/05/02 10:01:40;;;;;;;7.63;1.70;;;;;;;;;;5046014;28;20457;-86
2023/05/02 10:04:15;;;;;;;6.85;1.83;;;;;;;;;;5045894;28;20435;-85
2023/05/02 10:06:44;;;;;;;5.63;1.63;;;;;;;;;;5042288;28;20423;-84
2023/05/02 10:09:12;;;;;;;6.82;1.70;;;;;;;;;;5044059;28;21209;-85
2023/05/02 10:11:41;;;;;;;7.90;2.13;;;;;;;;;;5041198;28;20455;-88
2023/05/02 10:14:16;;;;;;;10.45;1.73;;;;;;;;;;5042990;28;20442;-87
2023/05/02 10:16:47;;;;;;;6.57;1.60;;;;;;;;;;5044570;28;22207;-83
2023/05/02 10:19:18;;;;;;;7.50;1.70;;;;;;;;;;5022772;28;20919;-87
2023/05/02 10:21:51;;;;;;;6.63;1.58;;;;;;;;;;5050225;28;20419;-84
2023/05/02 10:24:24;;;;;;;5.80;1.58;;;;;;;;;;5040848;28;22472;-83
2023/05/02 10:26:57;;;;;;;9.50;1.90;;;;;;;;;;5041112;28;20952;-87
2023/05/02 10:29:28;;;;;;;5.68;1.48;;;;;;;;;;5046588;28;20423;-86
2023/05/02 10:31:57;;;;;;;6.05;1.52;;;;;;;;;;5044586;28;20431;-82
2023/05/02 10:34:25;;;;;;;7.10;1.90;;;;;;;;;;5049439;28;20946;-86
2023/05/02 10:37:00;;;;;;;4.80;1.52;;;;;;;;;;5047349;28;20443;-85
2023/05/02 10:39:33;;;;;;;5.97;1.40;;;;;;;;;;5043299;28;20428;-88
2023/05/02 10:42:06;;;;;;;8.00;1.50;;;;;;;;;;5044888;28;21094;-84
2023/05/02 10:44:41;;;;;;;5.63;1.63;;;;;;;;;;5044514;28;20434;-84
2023/05/02 10:47:18;;;;;;;5.95;1.50;;;;;;;;;;5053751;28;20419;-86
2023/05/02 10:49:49;;;;;;;4.72;1.50;;;;;;;;;;5050505;28;21160;-87
2023/05/02 10:52:26;;;;;;;7.45;1.90;;;;;;;;;;5043968;28;20427;-86
2023/05/02 10:55:13;;;;;;;5.53;1.50;;;;;;;;;;5044855;28;20435;-86
2023/05/02 10:58:06;;;;;;;5.18;1.50;;;;;;;;;;5048792;28;20424;-86
2023/05/02 11:00:35;;;;;;;5.45;1.42;;;;;;;;;;5041471;28;20440;-84
2023/05/02 11:03:08;;;;;;;7.60;1.83;;;;;;;;;;5051146;28;20756;-86
2023/05/02 11:05:56;;;;;;;6.35;1.70;;;;;;;;;;5052693;28;20423;-84
2023/05/02 11:08:30;;;;;;;4.80;1.90;;;;;;;;;;5043335;28;20526;-83
2023/05/02 11:11:18;;;;;;;6.27;1.60;;;;;;;;;;5043967;28;20419;-85
2023/05/02 11:13:51;;;;;;;5.90;1.53;;;;;;;;;;5044790;28;20423;-85
2023/05/02 11:16:20;;;;;;;4.37;1.37;;;;;;;;;;5047149;28;20427;-84
2023/05/02 11:19:00;;;;;;;4.88;1.40;;;;;;;;;;5021095;28;21698;-86
2023/05/02 11:21:28;;;;;;;4.60;1.38;;;;;;;;;;5043816;28;20754;-85
2023/05/02 11:24:15;;;;;;;5.10;1.30;;;;;;;;;;5063835;28;20428;-89
2023/05/02 11:26:43;;;;;;;2.58;1.20;;;;;;;;;;5046737;28;20469;-85
2023/05/02 11:29:11;;;;;;;6.78;1.60;;;;;;;;;;5049260;28;20434;-87
2023/05/02 11:31:54;;;;;;;7.53;1.47;;;;;;;;;;5049712;28;20422;-84
2023/05/02 11:34:23;;;;;;;3.60;1.50;;;;;;;;;;5046013;28;20470;-88
2023/05/02 11:36:56;;;;;;;2.95;1.30;;;;;;;;;;5051213;28;21367;-85
2023/05/02 11:39:24;;;;;;;4.85;1.40;;;;;;;;;;5047554;28;20431;-85
2023/05/02 11:41:53;;;;;;;4.40;1.40;;;;;;;;;;5043990;28;20435;-83
2023/05/02 11:44:21;;;;;;;4.13;1.50;;;;;;;;;;5040326;28;20431;-84
2023/05/02 11:46:54;;;;;;;4.50;1.50;;;;;;;;;;5040793;28;20443;-80
2023/05/02 11:49:28;;;;;;;6.45;1.60;;;;;;;;;;5052078;28;20427;-87
2023/05/02 11:51:58;;;;;;;5.68;1.52;;;;;;;;;;5050028;28;20419;-84
2023/05/02 11:54:31;;;;;;;6.45;1.88;;;;;;;;;;5048965;28;20431;-84
2023/05/02 11:57:00;;;;;;;6.95;2.10;;;;;;;;;;5047336;28;20428;-83
2023/05/02 11:59:48;;;;;;;6.45;1.77;;;;;;;;;;5048664;28;20431;-82
2023/05/02 12:02:16;;;;;;;3.70;1.52;;;;;;;;;;5052616;28;20427;-84
2023/05/02 12:04:45;;;;;;;4.82;1.67;;;;;;;;;;5045003;28;20435;-86
2023/05/02 12:07:13;;;;;;;6.10;1.77;;;;;;;;;;5047350;28;21807;-85
2023/05/02 12:09:53;;;;;;;6.47;1.70;;;;;;;;;;5040898;28;20431;-85
2023/05/02 12:12:21;;;;;;;7.95;1.90;;;;;;;;;;5045957;28;20458;-83
2023/05/02 12:14:49;;;;;;;4.97;1.83;;;;;;;;;;5044451;28;21161;-86
2023/05/02 12:17:17;;;;;;;4.77;1.70;;;;;;;;;;5047793;28;20439;-84
2023/05/02 12:19:51;;;;;;;8.55;1.90;;;;;;;;;;5016250;28;21687;-86
2023/05/02 12:22:19;;;;;;;26.00;12.32;;;;;;;;;;5045341;28;20423;-85
2023/05/02 12:24:48;;;;;;;4.63;1.80;;;;;;;;;;5045821;28;21292;-84
2023/05/02 12:27:16;;;;;;;4.65;1.55;;;;;;;;;;5041225;28;20934;-85
2023/05/02 12:29:45;;;;;;;6.00;1.80;;;;;;;;;;5041745;28;20431;-85
2023/05/02 12:32:13;;;;;;;6.03;1.60;;;;;;;;;;5055652;28;20423;-85
2023/05/02 12:34:46;;;;;;;5.25;1.40;;;;;;;;;;5038632;28;20428;-86
2023/05/02 12:37:22;;;;;;;4.43;1.63;;;;;;;;;;5040226;28;20433;-85
2023/05/02 12:39:55;;;;;;;7.65;1.80;;;;;;;;;;5043571;28;20843;-87
2023/05/02 12:42:29;;;;;;;6.97;2.00;;;;;;;;;;5040816;28;20435;-84
2023/05/02 12:45:02;;;;;;;7.07;1.60;;;;;;;;;;5043733;28;20431;-87
2023/05/02 12:47:31;;;;;;;5.43;1.77;;;;;;;;;;5067922;28;20424;-85
2023/05/02 12:49:59;;;;;;;6.03;1.88;;;;;;;;;;5040237;28;20436;-83
2023/05/02 12:52:41;;;;;;;4.88;1.60;;;;;;;;;;5038739;28;20768;-85
2023/05/02 12:55:17;;;;;;;9.23;2.20;;;;;;;;;;5049027;28;20427;-86
2023/05/02 12:57:45;;;;;;;3.65;2.00;;;;;;;;;;5043205;28;20419;-87
2023/05/02 13:00:13;;;;;;;5.35;2.03;;;;;;;;;;5047887;28;20419;-85
2023/05/02 13:02:41;;;;;;;5.40;2.38;;;;;;;;;;5046113;28;20428;-85
2023/05/02 13:05:15;;;;;;;5.65;2.13;;;;;;;;;;5038239;28;20435;-85
2023/05/02 13:07:43;;;;;;;5.03;2.00;;;;;;;;;;5040682;28;20855;-86
2023/05/02 13:10:12;;;;;;;6.65;2.00;;;;;;;;;;5042819;28;20940;-83
2023/05/02 13:12:46;;;;;;;4.68;1.98;;;;;;;;;;5053338;28;20438;-84
2023/05/02 13:15:19;;;;;;;5.32;2.17;;;;;;;;;;5040148;28;21181;-86
2023/05/02 13:17:52;;;;;;;5.57;1.80;;;;;;;;;;5037910;28;20434;-85
2023/05/02 13:20:25;;;;;;;6.72;2.17;;;;;;;;;;5014603;28;20424;-85
2023/05/02 13:22:58;;;;;;;5.35;1.85;;;;;;;;;;5038848;28;20427;-84
2023/05/02 13:25:31;;;;;;;5.47;1.90;;;;;;;;;;5040100;28;21128;-84
2023/05/02 13:28:00;;;;;;;5.47;2.00;;;;;;;;;;5042488;28;20442;-84
2023/05/02 13:30:33;;;;;;;6.97;2.03;;;;;;;;;;5054663;28;20428;-85
2023/05/02 13:33:00;;;;;;;5.78;2.20;;;;;;;;;;5042492;28;21013;-83
2023/05/02 13:35:28;;;;;;;4.30;2.08;;;;;;;;;;5032594;28;20439;-81
2023/05/02 13:37:56;;;;;;;6.88;2.10;;;;;;;;;;5036048;28;20420;-86
2023/05/02 13:40:24;;;;;;;5.50;2.40;;;;;;;;;;5039737;28;20440;-84
2023/05/02 13:42:57;;;;;;;6.07;2.22;;;;;;;;;;5038048;28;20425;-85
2023/05/02 13:45:31;;;;;;;5.68;2.03;;;;;;;;;;5039394;28;20431;-85
2023/05/02 13:48:04;;;;;;;5.85;2.13;;;;;;;;;;5040455;28;20439;-84
2023/05/02 13:50:36;;;;;;;7.50;2.20;;;;;;;;;;5036328;28;20954;-83
2023/05/02 13:53:08;;;;;;;5.50;2.40;;;;;;;;;;5037604;28;20443;-82
2023/05/02 13:55:43;;;;;;;10.00;2.03;;;;;;;;;;5041242;28;21512;-82
2023/05/02 13:58:11;;;;;;;7.15;2.20;;;;;;;;;;5043595;28;20438;-83
2023/05/02 14:00:40;;;;;;;4.93;1.88;;;;;;;;;;5067647;28;20423;-86
2023/05/02 14:03:09;;;;;;;4.38;1.90;;;;;;;;;;5044166;28;20428;-82
2023/05/02 14:05:42;;;;;;;5.03;2.00;;;;;;;;;;5047704;28;21829;-86
2023/05/02 14:08:10;;;;;;;5.78;2.05;;;;;;;;;;5036651;28;20439;-83
2023/05/02 14:10:38;;;;;;;5.78;2.20;;;;;;;;;;5035714;28;20435;-82
2023/05/02 14:13:11;;;;;;;7.40;2.22;;;;;;;;;;5036641;28;20438;-84
2023/05/02 14:15:40;;;;;;;6.05;2.20;;;;;;;;;;5036577;28;20464;-83
2023/05/02 14:18:08;;;;;;;5.63;2.10;;;;;;;;;;5038378;28;20470;-82
2023/05/02 14:20:41;;;;;;;8.60;2.00;;;;;;;;;;5006246;28;20443;-84
2023/05/02 14:23:13;;;;;;;5.32;1.65;;;;;;;;;;5039386;28;20436;-83
2023/05/02 14:25:46;;;;;;;8.70;2.17;;;;;;;;;;5038259;28;20431;-84
2023/05/02 14:28:19;;;;;;;7.63;2.17;;;;;;;;;;5037871;28;20434;-83
2023/05/02 14:30:53;;;;;;;7.68;2.20;;;;;;;;;;5043239;28;20427;-84
2023/05/02 14:33:26;;;;;;;5.82;2.08;;;;;;;;;;5044851;28;20427;-83
2023/05/02 14:35:54;;;;;;;6.50;1.92;;;;;;;;;;5038173;28;20431;-83
2023/05/02 14:38:22;;;;;;;6.35;2.00;;;;;;;;;;5043690;28;20421;-84
2023/05/02 14:40:54;;;;;;;4.70;1.90;;;;;;;;;;5049964;28;22079;-84
2023/05/02 14:43:23;;;;;;;7.70;2.10;;;;;;;;;;5041708;28;20443;-84
2023/05/02 14:45:57;;;;;;;7.55;2.15;;;;;;;;;;5039133;28;22105;-83
2023/05/02 14:48:25;;;;;;;5.60;2.20;;;;;;;;;;5040916;28;20427;-84
2023/05/02 14:50:53;;;;;;;6.63;2.30;;;;;;;;;;5044364;28;20438;-84
2023/05/02 14:53:21;;;;;;;4.75;1.95;;;;;;;;;;5043632;28;20423;-85
2023/05/02 14:55:49;;;;;;;7.75;1.95;;;;;;;;;;5040470;28;20416;-84
2023/05/02 14:58:19;;;;;;;6.25;2.00;;;;;;;;;;5043477;28;20931;-83
2023/05/02 15:00:47;;;;;;;4.87;2.00;;;;;;;;;;5039220;28;20427;-83